sensor_id;sensor_type;location;lat;lon;timestamp;pressure;altitude;pressure_sealevel;temperature;humidity
30744;BME280;17486;46.738;7.622;2023-04-16T00:01:13;95331.63;;;8.81;67.25
30744;BME280;17486;46.738;7.622;2023-04-16T00:03:39;95329.13;;;8.77;66.93
30744;BME280;17486;46.738;7.622;2023-04-16T00:06:04;95318.38;;;8.66;66.96
30744;BME280;17486;46.738;7.622;2023-04-16T00:08:29;95314.00;;;8.67;67.00
30744;BME280;17486;46.738;7.622;2023-04-16T00:10:55;95323.09;;;8.77;66.64
30744;BME280;17486;46.738;7.622;2023-04-16T00:13:20;95313.84;;;8.71;66.38
30744;BME280;17486;46.738;7.622;2023-04-16T00:15:47;95317.59;;;8.85;65.99
30744;BME280;17486;46.738;7.622;2023-04-16T00:18:12;95315.66;;;8.90;66.37
30744;BME280;17486;46.738;7.622;2023-04-16T00:20:37;95316.44;;;8.92;66.60
30744;BME280;17486;46.738;7.622;2023-04-16T00:23:03;95314.56;;;8.95;66.26
30744;BME280;17486;46.738;7.622;2023-04-16T00:25:28;95315.59;;;8.91;65.86
30744;BME280;17486;46.738;7.622;2023-04-16T00:27:54;95316.13;;;8.79;66.31
30744;BME280;17486;46.738;7.622;2023-04-16T00:30:19;95319.78;;;8.73;66.25
30744;BME280;17486;46.738;7.622;2023-04-16T00:32:44;95313.34;;;8.61;66.55
30744;BME280;17486;46.738;7.622;2023-04-16T00:35:10;95318.59;;;8.60;66.38
30744;BME280;17486;46.738;7.622;2023-04-16T00:37:35;95321.34;;;8.57;66.73
30744;BME280;17486;46.738;7.622;2023-04-16T00:40:01;95324.38;;;8.67;66.62
30744;BME280;17486;46.738;7.622;2023-04-16T00:42:26;95318.38;;;8.66;66.16
30744;BME280;17486;46.738;7.622;2023-04-16T00:44:51;95303.06;;;8.60;66.21
30744;BME280;17486;46.738;7.622;2023-04-16T00:47:18;95326.00;;;8.69;66.01
30744;BME280;17486;46.738;7.622;2023-04-16T00:49:44;95329.41;;;8.71;65.65
30744;BME280;17486;46.738;7.622;2023-04-16T00:52:10;95319.94;;;8.70;65.52
30744;BME280;17486;46.738;7.622;2023-04-16T00:54:36;95326.91;;;8.68;64.96
30744;BME280;17486;46.738;7.622;2023-04-16T00:57:01;95321.19;;;8.60;65.14
30744;BME280;17486;46.738;7.622;2023-04-16T00:59:27;95319.44;;;8.60;65.42
30744;BME280;17486;46.738;7.622;2023-04-16T01:01:53;95309.38;;;8.53;65.57
30744;BME280;17486;46.738;7.622;2023-04-16T01:04:18;95311.06;;;8.54;65.24
30744;BME280;17486;46.738;7.622;2023-04-16T01:06:43;95323.72;;;8.61;65.02
30744;BME280;17486;46.738;7.622;2023-04-16T01:09:09;95308.56;;;8.52;65.48
30744;BME280;17486;46.738;7.622;2023-04-16T01:11:35;95324.59;;;8.62;65.37
30744;BME280;17486;46.738;7.622;2023-04-16T01:14:02;95323.66;;;8.63;65.37
30744;BME280;17486;46.738;7.622;2023-04-16T01:16:27;95315.88;;;8.63;65.40
30744;BME280;17486;46.738;7.622;2023-04-16T01:18:53;95320.31;;;8.61;65.38
30744;BME280;17486;46.738;7.622;2023-04-16T01:21:18;95310.97;;;8.57;65.67
30744;BME280;17486;46.738;7.622;2023-04-16T01:23:43;95329.72;;;8.63;65.52
30744;BME280;17486;46.738;7.622;2023-04-16T01:26:09;95301.66;;;8.51;65.51
30744;BME280;17486;46.738;7.622;2023-04-16T01:28:34;95323.59;;;8.65;65.02
30744;BME280;17486;46.738;7.622;2023-04-16T01:31:00;95323.59;;;8.65;65.27
30744;BME280;17486;46.738;7.622;2023-04-16T01:33:25;95320.03;;;8.67;65.29
30744;BME280;17486;46.738;7.622;2023-04-16T01:35:50;95324.47;;;8.65;65.00
30744;BME280;17486;46.738;7.622;2023-04-16T01:38:16;95309.38;;;8.53;65.17
30744;BME280;17486;46.738;7.622;2023-04-16T01:40:42;95314.47;;;8.56;65.02
30744;BME280;17486;46.738;7.622;2023-04-16T01:43:07;95316.69;;;8.65;65.37
30744;BME280;17486;46.738;7.622;2023-04-16T01:45:33;95320.03;;;8.67;65.41
30744;BME280;17486;46.738;7.622;2023-04-16T01:47:59;95314.09;;;8.65;65.59
30744;BME280;17486;46.738;7.622;2023-04-16T01:50:24;95308.81;;;8.67;65.61
30744;BME280;17486;46.738;7.622;2023-04-16T01:52:50;95307.81;;;8.49;65.51
30744;BME280;17486;46.738;7.622;2023-04-16T01:55:16;95306.16;;;8.48;65.65
30744;BME280;17486;46.738;7.622;2023-04-16T01:57:41;95326.53;;;8.57;65.54
30744;BME280;17486;46.738;7.622;2023-04-16T02:00:07;95321.50;;;8.52;65.59
30744;BME280;17486;46.738;7.622;2023-04-16T02:02:33;95322.31;;;8.54;65.13
30744;BME280;17486;46.738;7.622;2023-04-16T02:05:00;95320.53;;;8.55;65.20
30744;BME280;17486;46.738;7.622;2023-04-16T02:07:25;95312.91;;;8.52;65.54
30744;BME280;17486;46.738;7.622;2023-04-16T02:09:51;95326.53;;;8.57;65.72
30744;BME280;17486;46.738;7.622;2023-04-16T02:12:17;95315.53;;;8.50;66.02
30744;BME280;17486;46.738;7.622;2023-04-16T02:14:42;95330.69;;;8.61;65.51
30744;BME280;17486;46.738;7.622;2023-04-16T02:17:08;95312.78;;;8.55;65.73
30744;BME280;17486;46.738;7.622;2023-04-16T02:19:34;95307.81;;;8.49;65.93
30744;BME280;17486;46.738;7.622;2023-04-16T02:21:59;95317.13;;;8.54;66.00
30744;BME280;17486;46.738;7.622;2023-04-16T02:24:25;95307.06;;;8.46;66.00
30744;BME280;17486;46.738;7.622;2023-04-16T02:26:51;95311.28;;;8.49;66.14
30744;BME280;17486;46.738;7.622;2023-04-16T02:29:16;95325.66;;;8.56;65.96
30744;BME280;17486;46.738;7.622;2023-04-16T02:31:42;95332.59;;;8.56;66.08
30744;BME280;17486;46.738;7.622;2023-04-16T02:34:08;95328.69;;;8.45;65.67
30744;BME280;17486;46.738;7.622;2023-04-16T02:36:33;95330.72;;;8.37;65.47
30744;BME280;17486;46.738;7.622;2023-04-16T02:38:59;95325.78;;;8.31;65.86
30744;BME280;17486;46.738;7.622;2023-04-16T02:41:24;95336.75;;;8.38;66.10
30744;BME280;17486;46.738;7.622;2023-04-16T02:43:50;95320.66;;;8.29;65.56
30744;BME280;17486;46.738;7.622;2023-04-16T02:46:15;95325.72;;;8.33;65.68
30744;BME280;17486;46.738;7.622;2023-04-16T02:48:41;95340.13;;;8.40;65.45
30744;BME280;17486;46.738;7.622;2023-04-16T02:51:06;95346.97;;;8.41;65.64
30744;BME280;17486;46.738;7.622;2023-04-16T02:53:31;95347.16;;;8.36;65.49
30744;BME280;17486;46.738;7.622;2023-04-16T02:55:57;95348.19;;;8.32;65.51
30744;BME280;17486;46.738;7.622;2023-04-16T02:58:24;95354.44;;;8.26;65.83
30744;BME280;17486;46.738;7.622;2023-04-16T03:00:53;95339.63;;;8.08;66.14
30744;BME280;17486;46.738;7.622;2023-04-16T03:03:19;95354.09;;;8.13;66.53
30744;BME280;17486;46.738;7.622;2023-04-16T03:05:45;95342.03;;;8.12;66.68
30744;BME280;17486;46.738;7.622;2023-04-16T03:08:10;95353.00;;;8.19;66.59
30744;BME280;17486;46.738;7.622;2023-04-16T03:10:36;95351.38;;;8.17;66.86
30744;BME280;17486;46.738;7.622;2023-04-16T03:13:02;95356.56;;;8.17;67.30
30744;BME280;17486;46.738;7.622;2023-04-16T03:15:28;95353.38;;;8.10;66.98
30744;BME280;17486;46.738;7.622;2023-04-16T03:17:53;95362.75;;;8.12;67.10
30744;BME280;17486;46.738;7.622;2023-04-16T03:20:19;95369.50;;;8.17;67.45
30744;BME280;17486;46.738;7.622;2023-04-16T03:22:48;95366.25;;;8.11;67.99
30744;BME280;17486;46.738;7.622;2023-04-16T03:25:13;95359.59;;;8.04;68.11
30744;BME280;17486;46.738;7.622;2023-04-16T03:27:39;95381.59;;;8.16;68.00
30744;BME280;17486;46.738;7.622;2023-04-16T03:30:06;95346.00;;;7.99;67.87
30744;BME280;17486;46.738;7.622;2023-04-16T03:32:31;95366.25;;;8.11;67.91
30744;BME280;17486;46.738;7.622;2023-04-16T03:34:57;95381.44;;;8.21;67.78
30744;BME280;17486;46.738;7.622;2023-04-16T03:37:22;95361.63;;;8.20;67.75
30744;BME280;17486;46.738;7.622;2023-04-16T03:39:47;95370.84;;;8.27;67.85
30744;BME280;17486;46.738;7.622;2023-04-16T03:42:13;95379.16;;;8.35;68.05
30744;BME280;17486;46.738;7.622;2023-04-16T03:44:38;95373.97;;;8.35;68.01
30744;BME280;17486;46.738;7.622;2023-04-16T03:47:03;95382.44;;;8.40;68.15
30744;BME280;17486;46.738;7.622;2023-04-16T03:49:29;95383.25;;;8.41;67.80
30744;BME280;17486;46.738;7.622;2023-04-16T03:51:54;95384.19;;;8.40;67.55
30744;BME280;17486;46.738;7.622;2023-04-16T03:54:19;95381.63;;;8.38;67.54
30744;BME280;17486;46.738;7.622;2023-04-16T03:56:45;95365.53;;;8.30;67.76
30744;BME280;17486;46.738;7.622;2023-04-16T03:59:10;95383.38;;;8.38;67.41
30744;BME280;17486;46.738;7.622;2023-04-16T04:01:35;95383.44;;;8.36;67.63
30744;BME280;17486;46.738;7.622;2023-04-16T04:04:01;95382.28;;;8.43;67.41
30744;BME280;17486;46.738;7.622;2023-04-16T04:06:26;95377.25;;;8.40;67.54
30744;BME280;17486;46.738;7.622;2023-04-16T04:08:52;95378.19;;;8.38;67.37
30744;BME280;17486;46.738;7.622;2023-04-16T04:11:17;95373.97;;;8.35;67.29
30744;BME280;17486;46.738;7.622;2023-04-16T04:13:43;95387.59;;;8.40;67.16
30744;BME280;17486;46.738;7.622;2023-04-16T04:16:08;95382.56;;;8.37;67.48
30744;BME280;17486;46.738;7.622;2023-04-16T04:18:33;95388.56;;;8.38;67.26
30744;BME280;17486;46.738;7.622;2023-04-16T04:20:59;95372.53;;;8.28;66.64
30744;BME280;17486;46.738;7.622;2023-04-16T04:23:28;95381.31;;;8.24;66.82
30744;BME280;17486;46.738;7.622;2023-04-16T04:25:53;95385.81;;;8.19;67.04
30744;BME280;17486;46.738;7.622;2023-04-16T04:28:19;95386.00;;;8.14;67.09
30744;BME280;17486;46.738;7.622;2023-04-16T04:30:44;95381.94;;;8.07;67.10
30744;BME280;17486;46.738;7.622;2023-04-16T04:33:10;95391.47;;;8.06;67.57
30744;BME280;17486;46.738;7.622;2023-04-16T04:35:35;95398.63;;;8.00;67.44
30744;BME280;17486;46.738;7.622;2023-04-16T04:38:01;95400.56;;;7.94;67.71
30744;BME280;17486;46.738;7.622;2023-04-16T04:40:27;95397.22;;;7.91;67.50
30744;BME280;17486;46.738;7.622;2023-04-16T04:42:52;95393.00;;;7.88;67.79
30744;BME280;17486;46.738;7.622;2023-04-16T04:45:17;95399.03;;;7.89;67.65
30744;BME280;17486;46.738;7.622;2023-04-16T04:47:43;95394.84;;;7.85;67.31
30744;BME280;17486;46.738;7.622;2023-04-16T04:50:08;95402.75;;;7.82;67.28
30744;BME280;17486;46.738;7.622;2023-04-16T04:52:34;95396.13;;;7.74;66.82
30744;BME280;17486;46.738;7.622;2023-04-16T04:55:00;95401.28;;;7.74;66.62
30744;BME280;17486;46.738;7.622;2023-04-16T04:57:25;95393.72;;;7.68;66.23
30744;BME280;17486;46.738;7.622;2023-04-16T04:59:50;95385.41;;;7.60;66.66
30744;BME280;17486;46.738;7.622;2023-04-16T05:02:16;95402.50;;;7.64;66.67
30744;BME280;17486;46.738;7.622;2023-04-16T05:04:41;95401.03;;;7.57;66.56
30744;BME280;17486;46.738;7.622;2023-04-16T05:07:06;95409.59;;;7.59;66.59
30744;BME280;17486;46.738;7.622;2023-04-16T05:09:32;95394.28;;;7.53;66.50
30744;BME280;17486;46.738;7.622;2023-04-16T05:11:57;95404.47;;;7.57;66.12
30744;BME280;17486;46.738;7.622;2023-04-16T05:14:23;95416.34;;;7.63;66.38
30744;BME280;17486;46.738;7.622;2023-04-16T05:16:48;95398.28;;;7.61;66.78
30744;BME280;17486;46.738;7.622;2023-04-16T05:19:13;95399.59;;;7.73;66.50
30744;BME280;17486;46.738;7.622;2023-04-16T05:21:39;95394.63;;;7.67;65.97
30744;BME280;17486;46.738;7.622;2023-04-16T05:24:05;95405.44;;;7.78;66.08
30744;BME280;17486;46.738;7.622;2023-04-16T05:26:30;95406.22;;;7.80;66.07
30744;BME280;17486;46.738;7.622;2023-04-16T05:28:55;95406.34;;;7.77;66.28
30744;BME280;17486;46.738;7.622;2023-04-16T05:31:21;95407.16;;;7.79;66.49
30744;BME280;17486;46.738;7.622;2023-04-16T05:33:46;95415.47;;;7.88;65.81
30744;BME280;17486;46.738;7.622;2023-04-16T05:36:11;95405.94;;;7.88;66.04
30744;BME280;17486;46.738;7.622;2023-04-16T05:38:37;95403.34;;;7.88;65.75
30744;BME280;17486;46.738;7.622;2023-04-16T05:41:02;95413.63;;;7.91;65.98
30744;BME280;17486;46.738;7.622;2023-04-16T05:43:28;95418.75;;;7.93;65.95
30744;BME280;17486;46.738;7.622;2023-04-16T05:45:53;95422.16;;;7.93;66.17
30744;BME280;17486;46.738;7.622;2023-04-16T05:48:18;95412.09;;;7.86;66.27
30744;BME280;17486;46.738;7.622;2023-04-16T05:50:44;95424.00;;;7.90;65.92
30744;BME280;17486;46.738;7.622;2023-04-16T05:53:09;95404.59;;;7.78;66.01
30744;BME280;17486;46.738;7.622;2023-04-16T05:55:35;95411.41;;;7.80;65.97
30744;BME280;17486;46.738;7.622;2023-04-16T05:58:03;95424.81;;;7.92;65.64
30744;BME280;17486;46.738;7.622;2023-04-16T06:00:29;95418.97;;;7.87;66.14
30744;BME280;17486;46.738;7.622;2023-04-16T06:02:55;95420.88;;;7.82;66.72
30744;BME280;17486;46.738;7.622;2023-04-16T06:05:20;95427.41;;;7.92;66.72
30744;BME280;17486;46.738;7.622;2023-04-16T06:07:46;95423.91;;;7.93;66.46
30744;BME280;17486;46.738;7.622;2023-04-16T06:10:11;95430.66;;;7.97;66.42
30744;BME280;17486;46.738;7.622;2023-04-16T06:12:37;95429.88;;;7.95;66.12
30744;BME280;17486;46.738;7.622;2023-04-16T06:15:02;95439.06;;;8.04;66.45
30744;BME280;17486;46.738;7.622;2023-04-16T06:17:28;95434.69;;;8.06;66.39
30744;BME280;17486;46.738;7.622;2023-04-16T06:19:53;95418.69;;;7.94;66.22
30744;BME280;17486;46.738;7.622;2023-04-16T06:22:18;95430.59;;;7.99;66.21
30744;BME280;17486;46.738;7.622;2023-04-16T06:24:44;95422.09;;;7.95;66.54
30744;BME280;17486;46.738;7.622;2023-04-16T06:27:10;95417.03;;;7.92;66.41
30744;BME280;17486;46.738;7.622;2023-04-16T06:29:35;95431.34;;;8.02;66.13
30744;BME280;17486;46.738;7.622;2023-04-16T06:32:01;95419.84;;;7.86;65.99
30744;BME280;17486;46.738;7.622;2023-04-16T06:34:28;95430.13;;;7.89;66.33
30744;BME280;17486;46.738;7.622;2023-04-16T06:36:53;95426.38;;;7.72;66.80
30744;BME280;17486;46.738;7.622;2023-04-16T06:39:18;95436.59;;;7.75;66.86
30744;BME280;17486;46.738;7.622;2023-04-16T06:41:46;95425.53;;;7.72;66.86
30744;BME280;17486;46.738;7.622;2023-04-16T06:44:12;95445.06;;;7.80;66.73
30744;BME280;17486;46.738;7.622;2023-04-16T06:46:37;95447.50;;;7.85;66.96
30744;BME280;17486;46.738;7.622;2023-04-16T06:49:02;95448.19;;;7.90;67.18
30744;BME280;17486;46.738;7.622;2023-04-16T06:51:28;95430.16;;;7.87;67.01
30744;BME280;17486;46.738;7.622;2023-04-16T06:53:53;95446.16;;;7.99;66.54
30744;BME280;17486;46.738;7.622;2023-04-16T06:56:19;95451.28;;;8.00;66.69
30744;BME280;17486;46.738;7.622;2023-04-16T06:58:44;95454.53;;;8.05;66.45
30744;BME280;17486;46.738;7.622;2023-04-16T07:01:10;95446.69;;;8.08;66.65
30744;BME280;17486;46.738;7.622;2023-04-16T07:03:35;95450.91;;;8.11;66.52
30744;BME280;17486;46.738;7.622;2023-04-16T07:06:01;95449.03;;;8.14;66.18
30744;BME280;17486;46.738;7.622;2023-04-16T07:08:26;95439.81;;;8.07;66.23
30744;BME280;17486;46.738;7.622;2023-04-16T07:10:52;95460.06;;;8.20;66.11
30744;BME280;17486;46.738;7.622;2023-04-16T07:13:18;95452.22;;;8.21;66.07
30744;BME280;17486;46.738;7.622;2023-04-16T07:15:43;95465.91;;;8.25;66.16
30744;BME280;17486;46.738;7.622;2023-04-16T07:18:08;95464.22;;;8.24;66.07
30744;BME280;17486;46.738;7.622;2023-04-16T07:20:34;95438.31;;;8.00;65.76
30744;BME280;17486;46.738;7.622;2023-04-16T07:23:00;95457.59;;;8.17;65.77
30744;BME280;17486;46.738;7.622;2023-04-16T07:25:26;95460.81;;;8.23;66.36
30744;BME280;17486;46.738;7.622;2023-04-16T07:27:51;95458.94;;;8.27;66.24
30744;BME280;17486;46.738;7.622;2023-04-16T07:30:16;95459.84;;;8.26;65.79
30744;BME280;17486;46.738;7.622;2023-04-16T07:32:42;95448.81;;;8.21;65.68
30744;BME280;17486;46.738;7.622;2023-04-16T07:35:07;95450.59;;;8.19;66.16
30744;BME280;17486;46.738;7.622;2023-04-16T07:37:33;95454.72;;;8.24;66.12
30744;BME280;17486;46.738;7.622;2023-04-16T07:39:58;95447.84;;;8.23;66.01
30744;BME280;17486;46.738;7.622;2023-04-16T07:42:25;95457.19;;;8.27;65.47
30744;BME280;17486;46.738;7.622;2023-04-16T07:44:51;95453.63;;;8.30;66.02
30744;BME280;17486;46.738;7.622;2023-04-16T07:47:16;95464.91;;;8.29;66.10
30744;BME280;17486;46.738;7.622;2023-04-16T07:49:41;95461.41;;;8.30;66.08
30744;BME280;17486;46.738;7.622;2023-04-16T07:52:07;95464.81;;;8.32;65.99
30744;BME280;17486;46.738;7.622;2023-04-16T07:54:32;95466.53;;;8.32;66.04
30744;BME280;17486;46.738;7.622;2023-04-16T07:56:57;95464.81;;;8.32;65.84
30744;BME280;17486;46.738;7.622;2023-04-16T07:59:23;95469.13;;;8.32;65.80
30744;BME280;17486;46.738;7.622;2023-04-16T08:01:48;95458.22;;;8.23;65.44
30744;BME280;17486;46.738;7.622;2023-04-16T08:04:14;95463.41;;;8.23;65.73
30744;BME280;17486;46.738;7.622;2023-04-16T08:06:41;95450.66;;;8.17;66.00
30744;BME280;17486;46.738;7.622;2023-04-16T08:09:06;95465.84;;;8.26;66.00
30744;BME280;17486;46.738;7.622;2023-04-16T08:11:32;95465.81;;;8.28;66.25
30744;BME280;17486;46.738;7.622;2023-04-16T08:13:57;95465.47;;;8.37;66.18
30744;BME280;17486;46.738;7.622;2023-04-16T08:16:22;95468.75;;;8.42;66.15
30744;BME280;17486;46.738;7.622;2023-04-16T08:18:48;95471.25;;;8.45;65.99
30744;BME280;17486;46.738;7.622;2023-04-16T08:21:13;95467.69;;;8.48;65.98
30744;BME280;17486;46.738;7.622;2023-04-16T08:23:39;95473.63;;;8.52;65.97
30744;BME280;17486;46.738;7.622;2023-04-16T08:26:04;95479.41;;;8.58;65.88
30744;BME280;17486;46.738;7.622;2023-04-16T08:28:30;95485.25;;;8.63;65.90
30744;BME280;17486;46.738;7.622;2023-04-16T08:30:55;95489.44;;;8.68;65.76
30744;BME280;17486;46.738;7.622;2023-04-16T08:33:20;95488.34;;;8.73;65.50
30744;BME280;17486;46.738;7.622;2023-04-16T08:35:46;95488.16;;;8.78;65.24
30744;BME280;17486;46.738;7.622;2023-04-16T08:38:11;95493.34;;;8.78;65.54
30744;BME280;17486;46.738;7.622;2023-04-16T08:40:37;95482.53;;;8.67;64.89
30744;BME280;17486;46.738;7.622;2023-04-16T08:43:08;95482.38;;;8.71;64.77
30744;BME280;17486;46.738;7.622;2023-04-16T08:45:35;95494.78;;;8.85;64.61
30744;BME280;17486;46.738;7.622;2023-04-16T08:48:04;95501.63;;;8.88;65.05
30744;BME280;17486;46.738;7.622;2023-04-16T08:50:31;95498.34;;;8.83;64.83
30744;BME280;17486;46.738;7.622;2023-04-16T08:52:59;95512.13;;;8.85;65.81
30744;BME280;17486;46.738;7.622;2023-04-16T08:55:31;95506.13;;;8.83;64.87
30744;BME280;17486;46.738;7.622;2023-04-16T08:58:03;95506.41;;;8.75;65.00
30744;BME280;17486;46.738;7.622;2023-04-16T09:00:30;95515.22;;;8.71;65.15
30744;BME280;17486;46.738;7.622;2023-04-16T09:02:55;95510.16;;;8.68;66.09
30744;BME280;17486;46.738;7.622;2023-04-16T09:05:21;95501.84;;;8.59;65.48
30744;BME280;17486;46.738;7.622;2023-04-16T09:07:51;95508.75;;;8.59;65.52
30744;BME280;17486;46.738;7.622;2023-04-16T09:10:17;95519.69;;;8.67;65.68
30744;BME280;17486;46.738;7.622;2023-04-16T09:12:43;95509.50;;;8.62;65.57
30744;BME280;17486;46.738;7.622;2023-04-16T09:15:10;95517.75;;;8.72;65.03
30744;BME280;17486;46.738;7.622;2023-04-16T09:17:36;95515.41;;;8.66;65.13
30744;BME280;17486;46.738;7.622;2023-04-16T09:20:02;95521.44;;;8.67;65.37
30744;BME280;17486;46.738;7.622;2023-04-16T09:22:30;95524.97;;;8.64;65.13
30744;BME280;17486;46.738;7.622;2023-04-16T09:24:55;95527.41;;;8.69;65.02
30744;BME280;17486;46.738;7.622;2023-04-16T09:27:21;95527.22;;;8.73;65.09
30744;BME280;17486;46.738;7.622;2023-04-16T09:29:48;95533.09;;;8.78;65.37
30744;BME280;17486;46.738;7.622;2023-04-16T09:32:13;95523.75;;;8.74;65.04
30744;BME280;17486;46.738;7.622;2023-04-16T09:34:55;95532.19;;;8.79;64.90
30744;BME280;17486;46.738;7.622;2023-04-16T09:37:20;95530.34;;;8.83;65.23
30744;BME280;17486;46.738;7.622;2023-04-16T09:39:57;95532.00;;;8.84;64.72
30744;BME280;17486;46.738;7.622;2023-04-16T09:42:24;95525.84;;;8.87;64.89
30744;BME280;17486;46.738;7.622;2023-04-16T09:44:51;95523.38;;;8.84;64.55
30744;BME280;17486;46.738;7.622;2023-04-16T09:47:17;95530.34;;;8.83;64.74
30744;BME280;17486;46.738;7.622;2023-04-16T09:49:43;95528.34;;;8.90;64.06
30744;BME280;17486;46.738;7.622;2023-04-16T09:52:13;95528.50;;;8.85;64.30
30744;BME280;17486;46.738;7.622;2023-04-16T09:54:45;95532.75;;;8.88;64.61
30744;BME280;17486;46.738;7.622;2023-04-16T09:57:10;95536.13;;;8.90;64.67
30744;BME280;17486;46.738;7.622;2023-04-16T09:59:36;95529.25;;;8.89;64.96
30744;BME280;17486;46.738;7.622;2023-04-16T10:02:02;95528.34;;;8.90;64.65
30744;BME280;17486;46.738;7.622;2023-04-16T10:04:27;95532.75;;;8.88;65.17
30744;BME280;17486;46.738;7.622;2023-04-16T10:07:05;95531.16;;;8.84;64.98
30744;BME280;17486;46.738;7.622;2023-04-16T10:09:32;95534.78;;;8.79;64.74
30744;BME280;17486;46.738;7.622;2023-04-16T10:12:01;95534.03;;;8.76;65.13
30744;BME280;17486;46.738;7.622;2023-04-16T10:14:26;95521.38;;;8.68;65.30
30744;BME280;17486;46.738;7.622;2023-04-16T10:16:52;95522.16;;;8.70;65.59
30744;BME280;17486;46.738;7.622;2023-04-16T10:19:18;95524.47;;;8.78;65.15
30744;BME280;17486;46.738;7.622;2023-04-16T10:21:44;95518.41;;;8.79;65.43
30744;BME280;17486;46.738;7.622;2023-04-16T10:24:10;95523.38;;;8.84;65.51
30744;BME280;17486;46.738;7.622;2023-04-16T10:26:37;95535.84;;;8.98;65.54
30744;BME280;17486;46.738;7.622;2023-04-16T10:29:05;95538.25;;;9.02;65.35
30744;BME280;17486;46.738;7.622;2023-04-16T10:31:31;95537.34;;;9.03;65.42
30744;BME280;17486;46.738;7.622;2023-04-16T10:33:57;95522.00;;;8.97;65.51
30744;BME280;17486;46.738;7.622;2023-04-16T10:36:23;95539.88;;;9.05;65.30
30744;BME280;17486;46.738;7.622;2023-04-16T10:38:51;95526.44;;;8.95;65.41
30744;BME280;17486;46.738;7.622;2023-04-16T10:41:19;95524.66;;;8.95;65.55
30744;BME280;17486;46.738;7.622;2023-04-16T10:43:49;95528.88;;;8.98;65.65
30744;BME280;17486;46.738;7.622;2023-04-16T10:46:26;95537.94;;;9.10;65.90
30744;BME280;17486;46.738;7.622;2023-04-16T10:48:58;95531.97;;;9.08;65.19
30744;BME280;17486;46.738;7.622;2023-04-16T10:51:34;95536.84;;;9.16;65.27
30744;BME280;17486;46.738;7.622;2023-04-16T10:56:39;95537.78;;;9.15;65.40
30744;BME280;17486;46.738;7.622;2023-04-16T10:59:06;95539.44;;;9.16;65.50
30744;BME280;17486;46.738;7.622;2023-04-16T11:01:34;95536.00;;;9.15;65.09
30744;BME280;17486;46.738;7.622;2023-04-16T11:04:24;95534.22;;;9.17;64.80
30744;BME280;17486;46.738;7.622;2023-04-16T11:09:53;95535.88;;;9.18;63.79
30744;BME280;17486;46.738;7.622;2023-04-16T11:17:27;95540.97;;;9.21;63.97
30744;BME280;17486;46.738;7.622;2023-04-16T11:19:53;95535.78;;;9.21;63.62
30744;BME280;17486;46.738;7.622;2023-04-16T11:22:18;95529.84;;;9.18;63.38
30744;BME280;17486;46.738;7.622;2023-04-16T11:24:45;95546.09;;;9.23;63.73
30744;BME280;17486;46.738;7.622;2023-04-16T11:27:14;95548.56;;;9.26;63.50
30744;BME280;17486;46.738;7.622;2023-04-16T11:29:40;95533.13;;;9.23;62.78
30744;BME280;17486;46.738;7.622;2023-04-16T11:32:06;95544.22;;;9.26;62.95
30744;BME280;17486;46.738;7.622;2023-04-16T11:34:32;95548.47;;;9.29;62.71
30744;BME280;17486;46.738;7.622;2023-04-16T11:36:57;95551.94;;;9.28;62.41
30744;BME280;17486;46.738;7.622;2023-04-16T11:39:24;95552.72;;;9.30;62.53
30744;BME280;17486;46.738;7.622;2023-04-16T11:41:50;95548.31;;;9.32;62.48
30744;BME280;17486;46.738;7.622;2023-04-16T11:44:26;95549.06;;;9.36;62.96
30744;BME280;17486;46.738;7.622;2023-04-16T11:46:52;95542.16;;;9.35;62.70
30744;BME280;17486;46.738;7.622;2023-04-16T11:49:30;95555.56;;;9.46;61.95
30744;BME280;17486;46.738;7.622;2023-04-16T11:51:56;95541.66;;;9.47;61.71
30744;BME280;17486;46.738;7.622;2023-04-16T11:54:23;95552.78;;;9.51;61.76
30744;BME280;17486;46.738;7.622;2023-04-16T11:56:50;95551.72;;;9.55;61.66
30744;BME280;17486;46.738;7.622;2023-04-16T12:01:55;95543.69;;;9.61;61.21
30744;BME280;17486;46.738;7.622;2023-04-16T12:04:23;95540.13;;;9.63;61.49
30744;BME280;17486;46.738;7.622;2023-04-16T12:09:33;95546.97;;;9.66;61.20
30744;BME280;17486;46.738;7.622;2023-04-16T12:12:00;95543.69;;;9.61;61.27
30744;BME280;17486;46.738;7.622;2023-04-16T12:14:25;95553.13;;;9.63;61.54
30744;BME280;17486;46.738;7.622;2023-04-16T12:16:51;95557.59;;;9.60;60.88
30744;BME280;17486;46.738;7.622;2023-04-16T12:19:16;95554.34;;;9.55;61.24
30744;BME280;17486;46.738;7.622;2023-04-16T12:21:47;95552.03;;;9.47;61.09
30744;BME280;17486;46.738;7.622;2023-04-16T12:24:15;95548.84;;;9.40;61.24
30744;BME280;17486;46.738;7.622;2023-04-16T12:26:42;95558.34;;;9.41;60.78
30744;BME280;17486;46.738;7.622;2023-04-16T12:31:39;95548.69;;;9.23;61.61
30744;BME280;17486;46.738;7.622;2023-04-16T12:34:04;95557.13;;;9.28;61.07
30744;BME280;17486;46.738;7.622;2023-04-16T12:36:30;95563.91;;;9.32;61.58
30744;BME280;17486;46.738;7.622;2023-04-16T12:38:55;95560.19;;;9.38;61.51
30744;BME280;17486;46.738;7.622;2023-04-16T12:41:21;95558.56;;;9.35;61.45
30744;BME280;17486;46.738;7.622;2023-04-16T12:43:46;95561.16;;;9.35;61.74
30744;BME280;17486;46.738;7.622;2023-04-16T12:46:11;95546.91;;;9.25;61.92
30744;BME280;17486;46.738;7.622;2023-04-16T12:48:37;95563.06;;;9.32;62.03
30744;BME280;17486;46.738;7.622;2023-04-16T12:51:02;95557.06;;;9.29;62.20
30744;BME280;17486;46.738;7.622;2023-04-16T12:53:28;95562.94;;;9.35;61.50
30744;BME280;17486;46.738;7.622;2023-04-16T12:55:53;95561.31;;;9.32;61.71
30744;BME280;17486;46.738;7.622;2023-04-16T12:58:19;95563.75;;;9.35;61.73
30744;BME280;17486;46.738;7.622;2023-04-16T13:00:44;95561.97;;;9.37;61.60
30744;BME280;17486;46.738;7.622;2023-04-16T13:03:10;95560.28;;;9.36;61.71
30744;BME280;17486;46.738;7.622;2023-04-16T13:05:35;95556.03;;;9.34;62.02
30744;BME280;17486;46.738;7.622;2023-04-16T13:08:00;95555.06;;;9.36;61.88
30744;BME280;17486;46.738;7.622;2023-04-16T13:10:26;95561.06;;;9.38;61.81
30744;BME280;17486;46.738;7.622;2023-04-16T13:12:52;95555.00;;;9.38;62.29
30744;BME280;17486;46.738;7.622;2023-04-16T13:15:17;95543.34;;;9.27;61.88
30744;BME280;17486;46.738;7.622;2023-04-16T13:17:42;95560.34;;;9.35;61.08
30744;BME280;17486;46.738;7.622;2023-04-16T13:20:08;95558.84;;;9.29;61.43
30744;BME280;17486;46.738;7.622;2023-04-16T13:22:34;95546.09;;;9.23;62.29